• Join FlightAware (Why Join?)
  • Login
  • US Flag 
03:43AM EDT


 

Airport Tracker/Info


-or-


 

Live Flight TrackerFlight Track Log ✈ N502QS ✈ 21-Jul-2013 ✈ KBGR - KLEX

Flight Track Log - Related Links

Times and Time Zones

All times are in EDT time to prevent confusion due to time zone crossing. See the N502QS flight status page for this flight to view local times or setup timezone preferences in your user account.

Time Position Orientation Groundspeed Altitude Reporting Facility
EDT Latitude Longitude Course Direction KTS MPH feet Rate Location/Type
01:08PM 44.8356 -69.0853 269° West 265 305 10,300  Level Boston Center
01:09PM 44.8331 -69.2142 268° West 297 342 12,500 2,280 Climbing Boston Center
01:10PM 44.8306 -69.3519 269° West 333 383 14,900 2,880 Climbing Boston Center
01:11PM 44.8300 -69.4925 270° West 351 404 18,300 3,420 Climbing Boston Center
01:12PM 44.8167 -69.7266 270° West  Level FlightAware Approximate
01:12PM 44.8258 -69.6567 268° West 376 433 21,800  Level Boston Center
01:13PM 44.8231 -69.8061 269° West 388 447 25,100 2,940 Climbing Boston Center
01:14PM 44.8186 -69.9878 268° West 388 447 28,300 2,700 Climbing Boston Center
01:15PM 44.8156 -70.1458 268° West 393 452 30,600 2,100 Climbing Boston Center
01:16PM 44.8125 -70.3100 269° West 406 467 32,500 1,860 Climbing Boston Center
01:17PM 44.8069 -70.4711 267° West 411 473 34,400 1,740 Climbing Boston Center
01:18PM 44.8053 -70.6086 269° West 411 473 36,000 1,860 Climbing Boston Center
01:19PM 44.7992 -70.7639 267° West 406 467 38,200 2,040 Climbing Boston Center
01:20PM 44.7950 -70.9161 268° West 400 460 40,100 1,380 Climbing Boston Center
01:21PM 44.7886 -71.0683 267° West 400 460 41,000 900 Climbing Boston Center
01:22PM 44.7819 -71.2264 267° West 405 466 42,000 780 Climbing Boston Center
01:23PM 44.7772 -71.3875 268° West 410 472 42,600 480 Climbing Boston Center
01:24PM 44.7642 -71.5631 264° West 416 479 43,000 120 Climbing Boston Center
01:25PM 44.7172 -71.7097 246° West 411 473 42,900 120 Descending Boston Center
01:26PM 44.6725 -71.8622 248° West 417 480 43,300 660 Climbing Boston Center
01:27PM 44.6250 -72.0083 245° Southwest 417 480 44,300 960 Climbing Boston Center
01:28PM 44.5797 -72.1544 247° West 417 480 45,300 840 Climbing Boston Center
01:29PM 44.5342 -72.2944 246° West 412 474 46,000 600 Climbing Boston Center
01:30PM 44.4883 -72.4400 246° West 412 474 46,500 480 Climbing Boston Center
01:31PM 44.4425 -72.5883 247° West 412 474 47,000 180 Climbing Boston Center
01:32PM 44.3942 -72.7336 245° Southwest 412 474 46,900 -60 Descending Boston Center
01:33PM 44.3544 -72.8522 245° Southwest 424 488 46,900  Level Boston Center
01:34PM 44.3017 -73.0172 246° West 424 488 46,900  Level Boston Center
01:35PM 44.2528 -73.1675 246° West 424 488 46,900  Level Boston Center
01:36PM 44.2039 -73.3147 245° Southwest 424 488 46,900  Level Boston Center
01:37PM 44.1547 -73.4644 245° Southwest 424 488 46,900  Level Boston Center
01:38PM 44.1033 -73.6167 245° Southwest 424 488 46,900  Level Boston Center
01:39PM 44.0536 -73.7631 245° Southwest 429 494 46,900  Level Boston Center
01:40PM 44.0061 -73.9092 246° West 429 494 46,900 -60 Level Boston Center
01:41PM 43.9561 -74.0522 244° Southwest 424 488 46,800 -120 Descending Boston Center
01:42PM 43.9039 -74.2122 246° West 416 479 46,700 60 Descending Boston Center
01:43PM 43.8558 -74.3547 245° Southwest 421 484 47,000 120 Climbing Boston Center
01:44PM 43.8072 -74.5028 246° West 421 484 47,000  Level Boston Center
01:45PM 43.7567 -74.6478 244° Southwest 421 484 47,000  Level Boston Center
01:46PM 43.7081 -74.7897 245° Southwest 421 484 47,000  Level Boston Center
01:47PM 43.6569 -74.9339 244° Southwest 421 484 47,000  Level Boston Center
01:48PM 43.6189 -75.0528 246° West 421 484 47,000  Level Boston Center
01:50PM 43.5606 -75.2250 245° Southwest 421 484 47,000  Level Boston Center
01:51PM 43.5044 -75.3914 245° Southwest 428 493 47,000  Level Boston Center
01:52PM 43.4506 -75.5375 243° Southwest 428 493 47,000  Level Boston Center
01:53PM 43.3986 -75.6778 243° Southwest 428 493 47,000  Level Boston Center
01:54PM 43.3467 -75.8181 243° Southwest 423 487 47,000  Level Boston Center
01:55PM 43.2942 -75.9633 244° Southwest 423 487 47,000  Level Boston Center
01:57PM 43.1650 -76.3075 243° Southwest 421 484 47,000  Level Cleveland Center
01:58PM 43.1139 -76.4533 244° Southwest 421 484 47,000  Level Cleveland Center
01:59PM 43.0606 -76.5961 243° Southwest 421 484 47,000  Level Cleveland Center
02:00PM 43.0011 -76.7506 242° Southwest 421 484 47,000  Level Cleveland Center
02:01PM 42.9475 -76.8956 243° Southwest 421 484 47,000  Level Cleveland Center
02:02PM 42.8936 -77.0378 243° Southwest 421 484 47,000  Level Cleveland Center
02:03PM 42.8458 -77.1847 246° West 426 490 47,000  Level Cleveland Center
02:04PM 42.7981 -77.3319 246° West 426 490 47,000  Level Cleveland Center
02:05PM 42.7539 -77.4728 247° West 421 484 47,000  Level Cleveland Center
02:06PM 42.6992 -77.6083 241° Southwest 427 491 47,000  Level Cleveland Center
02:07PM 42.6339 -77.7467 237° Southwest 442 509 47,000  Level Cleveland Center
02:08PM 42.5664 -77.8936 238° Southwest 452 520 47,000  Level Cleveland Center
02:09PM 42.5028 -78.0258 237° Southwest 452 520 47,000  Level Cleveland Center
02:10PM 42.4369 -78.1608 237° Southwest 445 512 47,000  Level Cleveland Center
02:11PM 42.3731 -78.2953 237° Southwest 440 506 47,000  Level Cleveland Center
02:12PM 42.3089 -78.4325 238° Southwest 440 506 47,000  Level Cleveland Center
02:13PM 42.2444 -78.5636 236° Southwest 440 506 47,000  Level Cleveland Center
02:14PM 42.1719 -78.7117 237° Southwest 440 506 47,000  Level Cleveland Center
02:15PM 42.1053 -78.8453 236° Southwest 440 506 47,000  Level Cleveland Center
02:16PM 42.0406 -78.9783 237° Southwest 440 506 47,000  Level Cleveland Center
02:17PM 41.9756 -79.1142 237° Southwest 440 506 47,000  Level Cleveland Center
02:18PM 41.9144 -79.2356 236° Southwest 440 506 47,000  Level Cleveland Center
02:19PM 41.8411 -79.3792 236° Southwest 446 513 47,000  Level Cleveland Center
02:20PM 41.7778 -79.5111 237° Southwest 446 513 47,000  Level Cleveland Center
02:21PM 41.7225 -79.6206 236° Southwest 446 513 47,000  Level Cleveland Center
02:22PM 41.6425 -79.7775 236° Southwest 436 502 47,000  Level Cleveland Center
02:23PM 41.5828 -79.8947 236° Southwest 441 507 47,000  Level Cleveland Center
02:24PM 41.5083 -80.0369 235° Southwest 441 507 47,000  Level Cleveland Center
02:25PM 41.4422 -80.1703 237° Southwest 441 507 47,000  Level Cleveland Center
02:26PM 41.3758 -80.3008 236° Southwest 441 507 47,000  Level Cleveland Center
02:27PM 41.3033 -80.4311 233° Southwest 441 507 47,000  Level Cleveland Center
02:28PM 41.2367 -80.5639 236° Southwest 441 507 47,000  Level Cleveland Center
02:29PM 41.1658 -80.6989 235° Southwest 447 514 47,000  Level Cleveland Center
02:30PM 41.1072 -80.8175 237° Southwest 442 509 47,000  Level Cleveland Center
02:31PM 41.0381 -80.9464 235° Southwest 442 509 47,000  Level Cleveland Center
02:32PM 40.9561 -81.0917 233° Southwest 450 518 47,000  Level Cleveland Center
02:33PM 40.8867 -81.2231 235° Southwest 450 518 47,000  Level Cleveland Center
02:34PM 40.8256 -81.3458 237° Southwest 445 512 47,000  Level Cleveland Center
02:35PM 40.7536 -81.4739 233° Southwest 445 512 47,000  Level Cleveland Center
02:37PM 40.6144 -81.7375 235° Southwest 439 505 47,000  Level Indianapolis Center
02:38PM 40.5442 -81.8689 235° Southwest 437 503 47,000  Level Indianapolis Center
02:39PM 40.4736 -82.0017 235° Southwest 437 503 47,000  Level Indianapolis Center
02:40PM 40.4050 -82.1353 236° Southwest 437 503 47,000 -720 Level Indianapolis Center
02:41PM 40.3256 -82.2872 236° Southwest 432 497 45,600 -1,440 Descending Indianapolis Center
02:42PM 40.2583 -82.4156 236° Southwest 423 487 44,100 -2,220 Descending Indianapolis Center
02:43PM 40.1986 -82.5306 236° Southwest 425 489 41,100 -3,360 Descending Indianapolis Center
02:44PM 40.1189 -82.6822 236° Southwest 431 496 37,300 -3,000 Descending Indianapolis Center
02:45PM 40.0503 -82.8117 235° Southwest 428 493 35,000 -1,620 Descending Indianapolis Center
02:46PM 39.9811 -82.9414 235° Southwest 431 496 34,000 -540 Descending Indianapolis Center
02:47PM 39.9108 -83.0719 235° Southwest 435 501 34,000  Level Indianapolis Center
02:48PM 39.8403 -83.2022 235° Southwest 434 499 34,000 -1,320 Level Indianapolis Center
02:49PM 39.7681 -83.3328 234° Southwest 434 499 31,300 -1,980 Descending Indianapolis Center
02:50PM 39.6964 -83.4694 236° Southwest 441 507 30,000 -660 Descending Indianapolis Center
02:51PM 39.6208 -83.6097 235° Southwest 463 533 30,000 -60 Level Indianapolis Center
02:53PM 39.5469 -83.7456 235° Southwest 457 526 29,900 -840 Descending Indianapolis Center
02:54PM 39.4742 -83.8789 235° Southwest 452 520 28,400 -1,500 Descending Indianapolis Center
02:55PM 39.4022 -84.0106 235° Southwest 443 510 26,900 -1,740 Descending Indianapolis Center
02:56PM 39.3317 -84.1378 234° Southwest 434 499 24,900 -1,440 Descending Indianapolis Center
02:57PM 39.2631 -84.2625 235° Southwest 424 488 24,000 -540 Descending Indianapolis Center
02:58PM 39.1822 -84.4064 234° Southwest 420 483 23,800 -1,080 Descending Indianapolis Center
02:59PM 39.1142 -84.5289 234° Southwest 418 481 21,900 -1,740 Descending Indianapolis Center
03:00PM 39.0478 -84.6469 234° Southwest 406 467 20,300 -1,920 Descending Indianapolis Center
03:00PM 39.0000 -84.7167 229° Southwest 416 479 18,700 -2,160 Descending Cincinnati TRACON
03:01PM 38.9333 -84.7833 218° Southwest 396 456 17,400 -1,800 Descending Cincinnati TRACON
03:02PM 38.8500 -84.8667 218° Southwest 390 449 15,700 -1,680 Descending Cincinnati TRACON
03:03PM 38.7858 -84.8811 190° South 377 434 14,600 -2,040 Descending Indianapolis Center
03:04PM 38.6878 -84.8406 162° South 370 426 12,100 -2,220 Descending Indianapolis Center
03:05PM 38.5772 -84.7950 162° South 351 404 10,000 -1,020 Descending Indianapolis Center
03:06PM 38.5019 -84.7589 159° South 303 349 10,000  Level Indianapolis Center
03:07PM 38.4403 -84.6908 139° Southeast 292 336 10,000 -840 Level Indianapolis Center
03:08PM 38.3825 -84.6181 135° Southeast 291 335 8,300 -2,040 Descending Indianapolis Center
03:09PM 38.3256 -84.5569 140° Southeast 272 313 5,900 -1,620 Descending Indianapolis Center
03:10PM 38.2758 -84.4992 138° Southeast 253 291 5,000 -1,320 Descending Indianapolis Center
03:11PM 38.2244 -84.4556 146° Southeast 207 238 3,200 -900 Descending Indianapolis Center
03:12PM 38.1758 -84.4553 180° South 180 207 3,200  Level Indianapolis Center
03:13PM 38.1375 -84.4922 217° Southwest 175 201 3,200 -360 Level Indianapolis Center
03:14PM 38.1025 -84.5336 223° Southwest 173 199 2,500 -780 Descending Indianapolis Center
03:15PM 38.0681 -84.5711 221° Southwest 170 196 1,700 -780 Descending Indianapolis Center
03:17PM 38.0368 -84.6086 307° West  Level Estimated
03:24PM 38.0368 -84.6086 310° West  Level Estimated
03:25PM 38.0368 -84.6086 310° West  Level Estimated